createdAt,value
2019-02-27T00:01:11.397Z,9.80
2019-02-27T00:03:40.758Z,8.73
2019-02-27T00:06:10.155Z,8.20
2019-02-27T00:08:39.414Z,6.73
2019-02-27T00:11:12.068Z,6.30
2019-02-27T00:13:39.360Z,5.63
2019-02-27T00:16:10.893Z,5.67
2019-02-27T00:18:39.331Z,5.50
2019-02-27T00:21:10.994Z,5.67
2019-02-27T00:23:39.293Z,5.27
2019-02-27T00:26:08.974Z,5.20
2019-02-27T00:28:38.802Z,5.20
2019-02-27T00:31:11.126Z,5.47
2019-02-27T00:33:38.861Z,5.53
2019-02-27T00:36:11.979Z,5.60
2019-02-27T00:38:39.057Z,6.60
2019-02-27T00:41:12.008Z,6.70
2019-02-27T00:43:39.243Z,7.63
2019-02-27T00:46:10.734Z,6.90
2019-02-27T00:48:39.291Z,6.03
2019-02-27T00:51:09.627Z,5.60
2019-02-27T00:53:39.323Z,5.83
2019-02-27T00:56:11.984Z,5.47
2019-02-27T00:58:39.301Z,5.67
2019-02-27T01:01:10.035Z,6.37
2019-02-27T01:03:39.260Z,6.80
2019-02-27T01:06:08.485Z,6.70
2019-02-27T01:08:37.566Z,6.37
2019-02-27T01:11:06.696Z,6.73
2019-02-27T01:13:35.787Z,6.10
2019-02-27T01:16:04.904Z,5.30
2019-02-27T01:18:34.041Z,5.13
2019-02-27T01:21:03.215Z,4.90
2019-02-27T01:23:32.381Z,5.20
2019-02-27T01:26:01.598Z,4.77
2019-02-27T01:28:30.704Z,5.77
2019-02-27T01:30:59.795Z,5.10
2019-02-27T01:33:29.046Z,6.43
2019-02-27T01:35:58.143Z,16.20
2019-02-27T01:38:27.310Z,20.13
2019-02-27T01:40:56.384Z,17.33
2019-02-27T01:43:25.513Z,15.87
2019-02-27T01:45:55.038Z,10.80
2019-02-27T01:48:24.280Z,9.77
2019-02-27T01:50:55.313Z,9.30
2019-02-27T01:53:24.196Z,9.73
2019-02-27T01:55:56.214Z,9.87
2019-02-27T01:58:24.250Z,11.17
2019-02-27T02:00:56.101Z,11.67
2019-02-27T02:03:24.252Z,11.73
2019-02-27T02:05:53.352Z,11.27
2019-02-27T02:08:22.454Z,11.77
2019-02-27T02:10:51.579Z,11.47
2019-02-27T02:13:59.890Z,9.60
2019-02-27T02:17:01.657Z,7.70
2019-02-27T02:19:54.013Z,7.07
2019-02-27T02:22:47.666Z,7.07
2019-02-27T02:25:52.827Z,7.97
2019-02-27T02:29:17.874Z,7.27
2019-02-27T02:32:26.722Z,8.00
2019-02-27T02:35:28.271Z,9.07
2019-02-27T02:38:30.880Z,9.20
2019-02-27T02:41:48.239Z,9.73
2019-02-27T02:44:34.034Z,8.10
2019-02-27T02:47:34.824Z,8.77
2019-02-27T02:50:39.030Z,8.87
2019-02-27T02:53:52.157Z,9.03
2019-02-27T02:57:00.742Z,7.77
2019-02-27T03:00:38.975Z,8.23
2019-02-27T03:03:18.385Z,9.30
2019-02-27T03:06:35.004Z,8.47
2019-02-27T03:09:31.792Z,8.57
2019-02-27T03:12:47.776Z,7.43
2019-02-27T03:16:04.265Z,7.27
2019-02-27T03:19:29.662Z,7.33
2019-02-27T03:22:47.135Z,6.60
2019-02-27T03:26:04.147Z,6.80
2019-02-27T03:29:29.197Z,7.00
2019-02-27T03:32:18.540Z,6.13
2019-02-27T03:35:29.233Z,6.10
2019-02-27T03:38:28.950Z,6.87
2019-02-27T03:41:28.939Z,7.40
2019-02-27T03:44:33.496Z,5.47
2019-02-27T03:47:26.610Z,5.87
2019-02-27T03:50:23.442Z,6.23
2019-02-27T03:53:29.558Z,5.73
2019-02-27T03:57:19.072Z,6.30
2019-02-27T04:00:25.471Z,5.27
2019-02-27T04:03:22.074Z,5.97
2019-02-27T04:06:27.660Z,5.33
2019-02-27T04:08:57.825Z,5.50
2019-02-27T04:11:27.328Z,5.00
2019-02-27T04:14:03.413Z,7.50
2019-02-27T04:16:30.276Z,9.13
2019-02-27T04:19:02.695Z,9.47
2019-02-27T04:21:30.578Z,9.83
2019-02-27T04:23:59.700Z,9.57
2019-02-27T04:26:28.876Z,9.10
2019-02-27T04:28:58.000Z,8.57
2019-02-27T04:31:29.860Z,9.37
2019-02-27T04:34:00.373Z,8.97
2019-02-27T04:36:28.801Z,8.67
2019-02-27T04:39:01.870Z,8.83
2019-02-27T04:41:28.736Z,9.40
2019-02-27T04:43:57.845Z,9.00
2019-02-27T04:46:26.958Z,8.20
2019-02-27T04:48:56.143Z,8.87
2019-02-27T04:51:25.285Z,8.03
2019-02-27T04:53:54.383Z,7.30
2019-02-27T04:56:23.891Z,7.63
2019-02-27T04:58:53.000Z,7.70
2019-02-27T05:01:22.109Z,7.43
2019-02-27T05:03:51.267Z,6.67
2019-02-27T05:06:20.351Z,6.80
2019-02-27T05:08:49.497Z,6.70
2019-02-27T05:11:18.637Z,7.67
2019-02-27T05:13:48.847Z,8.53
2019-02-27T05:16:18.001Z,8.60
2019-02-27T05:18:47.093Z,6.93
2019-02-27T05:21:19.000Z,6.43
2019-02-27T05:23:47.191Z,6.63
2019-02-27T05:26:16.331Z,7.30
2019-02-27T05:28:45.545Z,6.70
2019-02-27T05:31:18.340Z,7.30
2019-02-27T05:33:46.047Z,7.20
2019-02-27T05:36:15.387Z,7.77
2019-02-27T05:38:44.676Z,6.87
2019-02-27T05:41:13.913Z,6.53
2019-02-27T05:43:47.703Z,5.93
2019-02-27T05:46:15.164Z,5.67
2019-02-27T05:48:44.394Z,4.97
2019-02-27T05:51:13.510Z,5.60
2019-02-27T05:53:42.620Z,5.40
2019-02-27T05:56:15.591Z,5.53
2019-02-27T05:58:42.818Z,5.33
2019-02-27T06:01:12.094Z,6.83
2019-02-27T06:03:41.202Z,5.43
2019-02-27T06:06:11.822Z,5.53
2019-02-27T06:08:41.320Z,5.80
2019-02-27T06:11:10.496Z,5.43
2019-02-27T06:13:39.638Z,5.50
2019-02-27T06:16:09.283Z,5.97
2019-02-27T06:18:38.552Z,6.00
2019-02-27T06:21:07.693Z,5.90
2019-02-27T06:23:37.843Z,5.90
2019-02-27T06:26:07.576Z,5.40
2019-02-27T06:28:36.709Z,5.70
2019-02-27T06:31:05.818Z,6.00
2019-02-27T06:33:34.952Z,6.13
2019-02-27T06:36:05.370Z,6.37
2019-02-27T06:38:34.934Z,6.63
2019-02-27T06:41:04.074Z,6.90
2019-02-27T06:43:33.221Z,8.80
2019-02-27T06:46:02.378Z,9.20
2019-02-27T06:48:31.581Z,11.43
2019-02-27T06:51:00.835Z,12.47
2019-02-27T06:53:30.773Z,13.00
2019-02-27T06:56:02.876Z,15.33
2019-02-27T06:58:30.733Z,12.70
2019-02-27T07:00:59.869Z,12.60
2019-02-27T07:03:29.426Z,12.77
2019-02-27T07:06:00.021Z,12.33
2019-02-27T07:08:29.231Z,12.90
2019-02-27T07:11:09.900Z,13.53
2019-02-27T07:13:29.985Z,11.97
2019-02-27T07:15:59.217Z,12.40
2019-02-27T07:18:28.343Z,13.67
2019-02-27T07:20:58.299Z,16.00
2019-02-27T07:23:28.389Z,15.37
2019-02-27T07:25:57.545Z,15.77
2019-02-27T07:28:26.791Z,20.33
2019-02-27T07:30:55.939Z,22.77
2019-02-27T07:33:25.043Z,22.00
2019-02-27T07:35:54.299Z,19.27
2019-02-27T07:38:25.471Z,18.37
2019-02-27T07:40:54.382Z,19.13
2019-02-27T07:43:25.408Z,17.93
2019-02-27T07:45:56.132Z,18.37
2019-02-27T07:48:25.245Z,17.43
2019-02-27T07:50:54.477Z,16.63
2019-02-27T07:53:25.545Z,16.07
2019-02-27T07:55:54.467Z,13.43
2019-02-27T07:58:23.604Z,22.63
2019-02-27T08:00:52.827Z,13.07
2019-02-27T08:03:22.001Z,14.97
2019-02-27T08:05:51.132Z,13.63
2019-02-27T08:08:23.224Z,14.63
2019-02-27T08:10:51.431Z,23.50
2019-02-27T08:13:20.523Z,18.50
2019-02-27T08:15:49.658Z,18.70
2019-02-27T08:18:23.161Z,17.47
2019-02-27T08:20:54.196Z,16.57
2019-02-27T08:23:20.500Z,17.07
2019-02-27T08:25:49.632Z,14.83
2019-02-27T08:28:18.823Z,12.87
2019-02-27T08:30:47.972Z,14.50
2019-02-27T08:33:17.074Z,13.00
2019-02-27T08:35:46.232Z,12.37
2019-02-27T08:38:15.335Z,11.97
2019-02-27T08:40:44.544Z,10.07
2019-02-27T08:43:13.660Z,11.03
2019-02-27T08:45:42.791Z,11.57
2019-02-27T08:48:11.824Z,10.90
2019-02-27T08:50:40.964Z,11.30
2019-02-27T08:53:10.048Z,10.30
2019-02-27T08:55:39.791Z,9.87
2019-02-27T08:58:08.891Z,10.83
2019-02-27T09:00:39.133Z,12.03
2019-02-27T09:03:08.247Z,10.90
2019-02-27T09:05:37.418Z,10.43
2019-02-27T09:08:07.339Z,9.70
2019-02-27T09:10:37.494Z,10.40
2019-02-27T09:13:06.607Z,9.70
2019-02-27T09:15:35.774Z,10.17
2019-02-27T09:18:05.033Z,10.27
2019-02-27T09:20:34.178Z,9.70
2019-02-27T09:23:03.397Z,10.37
2019-02-27T09:25:32.558Z,10.07
2019-02-27T09:28:03.490Z,9.70
2019-02-27T09:30:34.820Z,11.03
2019-02-27T09:33:03.941Z,9.90
2019-02-27T09:35:38.302Z,9.00
2019-02-27T09:38:04.084Z,10.33
2019-02-27T09:40:38.163Z,9.30
2019-02-27T09:43:06.171Z,8.90
2019-02-27T09:45:35.496Z,8.77
2019-02-27T09:48:04.897Z,8.13
2019-02-27T09:50:35.579Z,9.00
2019-02-27T09:53:04.839Z,8.43
2019-02-27T09:55:34.080Z,10.37
2019-02-27T09:58:03.318Z,8.93
2019-02-27T10:00:37.359Z,9.30
2019-02-27T10:03:06.711Z,9.10
2019-02-27T10:05:36.693Z,8.03
2019-02-27T10:08:07.616Z,9.53
2019-02-27T10:10:37.009Z,9.23
2019-02-27T10:13:06.138Z,10.40
2019-02-27T10:15:35.335Z,8.83
2019-02-27T10:18:04.707Z,12.20
2019-02-27T10:20:36.835Z,8.53
2019-02-27T10:23:04.763Z,11.63
2019-02-27T10:25:33.966Z,9.30
2019-02-27T10:28:04.487Z,11.30
2019-02-27T10:30:33.906Z,9.47
2019-02-27T10:33:03.534Z,9.07
2019-02-27T10:35:34.749Z,8.43
2019-02-27T10:38:04.222Z,9.60
2019-02-27T10:40:33.524Z,8.50
2019-02-27T10:43:02.734Z,8.63
2019-02-27T10:45:31.887Z,8.50
2019-02-27T10:48:01.077Z,9.70
2019-02-27T10:50:30.347Z,9.37
2019-02-27T10:52:59.445Z,8.60
2019-02-27T10:55:28.642Z,8.57
2019-02-27T10:57:59.926Z,9.23
2019-02-27T11:00:30.264Z,9.00
2019-02-27T11:02:59.581Z,8.20
2019-02-27T11:05:29.571Z,6.67
2019-02-27T11:07:58.727Z,7.37
2019-02-27T11:10:27.848Z,7.63
2019-02-27T11:12:57.028Z,6.67
2019-02-27T11:15:26.175Z,6.47
2019-02-27T11:17:55.358Z,5.37
2019-02-27T11:20:24.879Z,5.30
2019-02-27T11:22:54.195Z,5.10
2019-02-27T11:25:23.580Z,5.03
2019-02-27T11:27:52.726Z,6.53
2019-02-27T11:30:24.393Z,4.70
2019-02-27T11:32:57.013Z,4.13
2019-02-27T11:35:25.203Z,5.07
2019-02-27T11:37:55.172Z,4.97
2019-02-27T11:40:24.488Z,5.10
2019-02-27T11:42:53.754Z,4.70
2019-02-27T11:45:24.626Z,4.57
2019-02-27T11:47:53.969Z,5.17
2019-02-27T11:50:23.102Z,4.77
2019-02-27T11:52:52.319Z,4.67
2019-02-27T11:55:21.459Z,4.33
2019-02-27T11:57:51.680Z,3.90
2019-02-27T12:00:28.701Z,3.63
2019-02-27T12:02:57.907Z,3.57
2019-02-27T12:05:30.806Z,3.60
2019-02-27T12:07:57.904Z,3.83
2019-02-27T12:10:27.516Z,3.63
2019-02-27T12:13:00.728Z,3.73
2019-02-27T12:15:27.659Z,3.40
2019-02-27T12:17:59.965Z,3.40
2019-02-27T12:20:27.823Z,3.27
2019-02-27T12:22:56.991Z,3.70
2019-02-27T12:25:28.953Z,3.47
2019-02-27T12:27:57.205Z,3.13
2019-02-27T12:30:26.960Z,2.93
2019-02-27T12:32:57.074Z,2.70
2019-02-27T12:35:28.134Z,2.77
2019-02-27T12:37:57.303Z,3.33
2019-02-27T12:40:26.428Z,3.20
2019-02-27T12:42:55.627Z,2.77
2019-02-27T12:45:26.506Z,3.07
2019-02-27T12:47:56.139Z,3.03
2019-02-27T12:50:26.927Z,3.07
2019-02-27T12:52:56.585Z,2.47
2019-02-27T12:55:26.097Z,2.85
2019-02-27T12:57:55.226Z,2.47
2019-02-27T13:00:26.709Z,2.50
2019-02-27T13:02:55.857Z,2.50
2019-02-27T13:05:27.369Z,2.47
2019-02-27T13:07:55.813Z,2.10
2019-02-27T13:10:24.933Z,2.45
2019-02-27T13:12:54.258Z,2.63
2019-02-27T13:15:23.870Z,3.10
2019-02-27T13:17:56.142Z,2.40
2019-02-27T13:20:25.199Z,2.70
2019-02-27T13:22:54.325Z,2.72
2019-02-27T13:25:24.877Z,2.33
2019-02-27T13:27:54.225Z,2.65
2019-02-27T13:30:23.573Z,3.08
2019-02-27T13:32:52.725Z,2.12
2019-02-27T13:35:23.139Z,2.70
2019-02-27T13:37:52.965Z,2.87
2019-02-27T13:40:22.158Z,2.30
2019-02-27T13:42:53.376Z,2.10
2019-02-27T13:45:23.803Z,2.08
2019-02-27T13:47:52.923Z,2.58
2019-02-27T13:50:23.466Z,2.45
2019-02-27T13:52:52.930Z,2.40
2019-02-27T13:55:23.092Z,2.15
2019-02-27T13:57:52.359Z,2.10
2019-02-27T14:00:27.012Z,2.50
2019-02-27T14:02:56.266Z,2.27
2019-02-27T14:05:25.521Z,2.17
2019-02-27T14:07:58.526Z,2.22
2019-02-27T14:10:26.887Z,2.17
2019-02-27T14:12:56.217Z,1.70
2019-02-27T14:15:27.194Z,2.08
2019-02-27T14:17:56.276Z,2.17
2019-02-27T14:20:26.874Z,1.92
2019-02-27T14:22:56.485Z,2.10
2019-02-27T14:25:31.143Z,2.52
2019-02-27T14:27:58.828Z,1.90
2019-02-27T14:30:31.835Z,1.50
2019-02-27T14:33:00.969Z,1.98
2019-02-27T14:35:35.303Z,1.85
2019-02-27T14:38:00.951Z,1.98
2019-02-27T14:40:30.179Z,1.90
2019-02-27T14:42:59.293Z,1.87
2019-02-27T14:45:28.430Z,2.00
2019-02-27T14:47:59.058Z,1.60
2019-02-27T14:50:33.582Z,1.87
2019-02-27T14:52:59.321Z,1.70
2019-02-27T14:55:28.562Z,1.80
2019-02-27T14:57:57.706Z,2.08
2019-02-27T15:00:28.560Z,1.65
2019-02-27T15:02:57.795Z,1.62
2019-02-27T15:05:27.067Z,1.55
2019-02-27T15:07:56.245Z,1.77
2019-02-27T15:10:26.114Z,1.60
2019-02-27T15:12:55.674Z,1.80
2019-02-27T15:15:26.721Z,1.87
2019-02-27T15:17:55.953Z,1.70
2019-02-27T15:20:25.944Z,1.47
2019-02-27T15:22:55.362Z,1.60
2019-02-27T15:25:24.553Z,1.75
2019-02-27T15:27:58.299Z,2.25
2019-02-27T15:30:26.064Z,2.02
2019-02-27T15:32:55.196Z,1.60
2019-02-27T15:35:24.392Z,2.00
2019-02-27T15:37:53.763Z,3.05
2019-02-27T15:40:28.637Z,1.87
2019-02-27T15:42:54.581Z,2.55
2019-02-27T15:45:23.816Z,2.30
2019-02-27T15:47:52.938Z,2.45
2019-02-27T15:50:23.605Z,2.10
2019-02-27T15:52:52.873Z,2.10
2019-02-27T15:55:22.037Z,1.98
2019-02-27T15:57:53.790Z,1.90
2019-02-27T16:00:22.670Z,1.55
2019-02-27T16:02:51.863Z,1.77
2019-02-27T16:05:20.990Z,1.92
2019-02-27T16:07:50.430Z,1.82
2019-02-27T16:10:20.696Z,1.70
2019-02-27T16:12:50.315Z,1.60
2019-02-27T16:15:19.659Z,1.80
2019-02-27T16:17:49.160Z,1.70
2019-02-27T16:20:18.857Z,1.87
2019-02-27T16:22:47.988Z,2.17
2019-02-27T16:25:19.867Z,1.80
2019-02-27T16:27:49.365Z,2.10
2019-02-27T16:30:31.122Z,2.50
2019-02-27T16:32:56.620Z,4.50
2019-02-27T16:35:25.776Z,4.50
2019-02-27T16:37:57.558Z,5.10
2019-02-27T16:40:25.883Z,5.20
2019-02-27T16:42:54.980Z,4.70
2019-02-27T16:45:29.412Z,4.90
2019-02-27T16:47:58.433Z,4.70
2019-02-27T16:50:28.251Z,4.77
2019-02-27T16:52:57.480Z,4.70
2019-02-27T16:55:26.653Z,4.23
2019-02-27T16:57:57.427Z,3.73
2019-02-27T17:00:28.012Z,4.17
2019-02-27T17:02:57.368Z,3.67
2019-02-27T17:05:26.899Z,3.30
2019-02-27T17:08:00.656Z,3.73
2019-02-27T17:10:29.344Z,4.00
2019-02-27T17:12:59.053Z,4.30
2019-02-27T17:15:28.199Z,3.47
2019-02-27T17:17:57.517Z,3.50
2019-02-27T17:20:26.654Z,3.33
2019-02-27T17:22:55.817Z,3.70
2019-02-27T17:25:28.582Z,3.57
2019-02-27T17:27:55.848Z,3.43
2019-02-27T17:30:27.096Z,3.50
2019-02-27T17:32:56.239Z,3.40
2019-02-27T17:35:25.342Z,3.40
2019-02-27T17:37:54.468Z,3.40
2019-02-27T17:40:23.583Z,3.70
2019-02-27T17:42:53.488Z,3.13
2019-02-27T17:45:23.429Z,3.73
2019-02-27T17:47:52.594Z,3.50
2019-02-27T17:50:21.751Z,3.63
2019-02-27T17:52:50.903Z,4.20
2019-02-27T17:55:20.093Z,4.43
2019-02-27T17:57:49.253Z,3.57
2019-02-27T18:00:23.705Z,3.70
2019-02-27T18:02:52.964Z,3.27
2019-02-27T18:05:22.361Z,3.83
2019-02-27T18:07:52.905Z,3.97
2019-02-27T18:10:22.170Z,4.07
2019-02-27T18:12:51.743Z,3.67
2019-02-27T18:15:21.311Z,10.40
2019-02-27T18:17:50.795Z,4.37
2019-02-27T18:20:24.418Z,6.40
2019-02-27T18:22:51.187Z,4.70
2019-02-27T18:25:20.372Z,5.80
2019-02-27T18:27:49.593Z,6.20
2019-02-27T18:30:19.748Z,4.77
2019-02-27T18:32:49.065Z,4.73
2019-02-27T18:35:18.470Z,4.87
2019-02-27T18:37:53.086Z,4.70
2019-02-27T18:40:19.140Z,5.17
2019-02-27T18:42:48.300Z,5.03
2019-02-27T18:45:17.496Z,4.97
2019-02-27T18:47:46.721Z,4.70
2019-02-27T18:50:16.313Z,4.90
2019-02-27T18:52:45.466Z,4.67
2019-02-27T18:55:14.914Z,4.10
2019-02-27T18:57:47.248Z,4.67
2019-02-27T19:00:18.715Z,4.83
2019-02-27T19:02:48.101Z,3.30
2019-02-27T19:05:17.384Z,4.30
2019-02-27T19:07:46.546Z,3.30
2019-02-27T19:10:16.065Z,3.77
2019-02-27T19:12:45.188Z,3.90
2019-02-27T19:15:16.668Z,3.70
2019-02-27T19:17:45.918Z,4.00
2019-02-27T19:20:18.020Z,4.10
2019-02-27T19:22:47.425Z,5.50
2019-02-27T19:25:16.546Z,5.10
2019-02-27T19:27:45.704Z,4.00
2019-02-27T19:30:16.752Z,4.00
2019-02-27T19:32:47.135Z,8.07
2019-02-27T19:35:21.280Z,12.90
2019-02-27T19:37:47.628Z,8.23
2019-02-27T19:40:18.432Z,5.87
2019-02-27T19:42:52.870Z,11.07
2019-02-27T19:45:21.988Z,9.50
2019-02-27T19:47:54.604Z,8.50
2019-02-27T19:50:22.368Z,6.97
2019-02-27T19:52:51.590Z,5.47
2019-02-27T19:55:26.516Z,5.57
2019-02-27T19:57:51.576Z,5.30
2019-02-27T20:00:22.543Z,5.40
2019-02-27T20:02:55.172Z,5.13
2019-02-27T20:05:22.878Z,4.60
2019-02-27T20:07:52.284Z,4.10
2019-02-27T20:10:21.521Z,3.47
2019-02-27T20:12:52.720Z,4.27
2019-02-27T20:15:23.338Z,3.83
2019-02-27T20:17:52.914Z,4.40
2019-02-27T20:20:22.521Z,6.00
2019-02-27T20:22:53.353Z,4.33
2019-02-27T20:25:23.334Z,4.40
2019-02-27T20:27:52.463Z,4.70
2019-02-27T20:30:21.590Z,5.10
2019-02-27T20:32:50.779Z,9.83
2019-02-27T20:35:20.817Z,8.30
2019-02-27T20:37:50.720Z,8.80
2019-02-27T20:40:19.924Z,8.07
2019-02-27T20:42:51.430Z,7.13
2019-02-27T20:45:19.954Z,6.53
2019-02-27T20:47:49.202Z,6.50
2019-02-27T20:50:34.610Z,6.70
2019-02-27T20:52:54.785Z,7.80
2019-02-27T20:55:23.971Z,9.63
2019-02-27T20:57:53.335Z,10.27
2019-02-27T21:00:22.510Z,10.50
2019-02-27T21:02:53.494Z,10.13
2019-02-27T21:05:23.978Z,10.60
2019-02-27T21:07:53.243Z,7.77
2019-02-27T21:10:23.412Z,10.00
2019-02-27T21:12:54.297Z,9.60
2019-02-27T21:15:24.916Z,11.07
2019-02-27T21:17:57.539Z,10.60
2019-02-27T21:20:25.317Z,8.70
2019-02-27T21:22:54.495Z,7.53
2019-02-27T21:25:23.639Z,8.97
2019-02-27T21:27:52.889Z,8.03
2019-02-27T21:30:22.200Z,8.43
2019-02-27T21:32:51.580Z,7.77
2019-02-27T21:35:20.725Z,7.13
2019-02-27T21:37:51.004Z,7.13
2019-02-27T21:40:20.346Z,6.03
2019-02-27T21:42:50.791Z,6.40
2019-02-27T21:45:20.350Z,6.30
2019-02-27T21:47:51.700Z,6.30
2019-02-27T21:50:20.601Z,7.27
2019-02-27T21:52:49.789Z,7.67
2019-02-27T21:55:18.971Z,7.03
2019-02-27T21:57:48.086Z,6.80
2019-02-27T22:00:20.661Z,8.70
2019-02-27T22:02:52.534Z,9.77
2019-02-27T22:05:21.651Z,11.93
2019-02-27T22:07:53.631Z,10.23
2019-02-27T22:10:22.786Z,9.93
2019-02-27T22:12:52.023Z,8.27
2019-02-27T22:15:26.286Z,8.70
2019-02-27T22:17:55.463Z,8.57
2019-02-27T22:20:25.793Z,8.13
2019-02-27T22:22:55.620Z,8.43
2019-02-27T22:25:30.212Z,7.87
2019-02-27T22:27:55.537Z,9.57
2019-02-27T22:30:24.774Z,9.33
2019-02-27T22:32:53.828Z,7.60
2019-02-27T22:35:22.923Z,8.50
2019-02-27T22:37:52.774Z,6.63
2019-02-27T22:40:22.316Z,6.40
2019-02-27T22:42:51.448Z,6.50
2019-02-27T22:45:20.852Z,5.63
2019-02-27T22:47:50.314Z,8.70
2019-02-27T22:50:19.527Z,13.63
2019-02-27T22:52:54.053Z,14.67
2019-02-27T22:55:20.348Z,11.70
2019-02-27T22:57:49.576Z,10.23
2019-02-27T23:00:57.402Z,9.53
2019-02-27T23:03:27.638Z,9.60
2019-02-27T23:05:56.826Z,8.73
2019-02-27T23:08:26.019Z,8.30
2019-02-27T23:10:55.287Z,8.50
2019-02-27T23:13:24.428Z,7.60
2019-02-27T23:15:58.065Z,7.80
2019-02-27T23:18:24.609Z,7.23
2019-02-27T23:20:55.395Z,6.70
2019-02-27T23:23:24.816Z,6.87
2019-02-27T23:25:54.062Z,5.67
2019-02-27T23:28:23.151Z,6.93
2019-02-27T23:30:52.306Z,5.83
2019-02-27T23:33:21.478Z,5.70
2019-02-27T23:35:50.883Z,5.30
2019-02-27T23:38:20.170Z,5.10
2019-02-27T23:40:50.129Z,4.63
2019-02-27T23:43:19.802Z,5.20
2019-02-27T23:45:49.083Z,4.73
2019-02-27T23:48:18.166Z,4.83
2019-02-27T23:50:47.335Z,4.97
2019-02-27T23:53:16.506Z,5.13
2019-02-27T23:55:45.666Z,5.20
2019-02-27T23:58:14.901Z,4.80
